Seizan Maru — JD3025 — position and weather

sailwx.info

Track history (hours):
 
Tides and Currents Weather Stations Pressure Air Temp Water Temp Dewpoint Dewpoint Depression Visibility Wind Speed Wind Dir Waves Ship Positions

Seizan Maru

Last reported at 2017-Sep-29 21:40 UTC. Time now 2017-Oct-22 06:11 UTC.
Position N 34°36' E 135°25'.
Warning: this ship's position is 22 days out of date.

Length 74 m.

Type: Cargo ship. MMSI: 431001149.

Date/timePositionNaut miles runAvg speedWind from/ knotsBaromVisibWave heightAir tempDewpointWater temp
2017-Sep-29 21:40N 34°36' E 135°25'1 8.7
2017-Sep-29 21:30N 34°36' E 135°24'3 5.9
2017-Sep-29 20:59N 34°39' E 135°26'2 0.2
2017-Sep-29 14:09N 34°38' E 135°27'1 6.0
2017-Sep-29 13:55N 34°39' E 135°26'3 6.5
2017-Sep-29 13:27N 34°37' E 135°23'0 0.0
2017-Sep-29 12:57N 34°37' E 135°23'0 0.0
2017-Sep-29 12:27N 34°37' E 135°23'0 0.0
2017-Sep-29 11:51N 34°37' E 135°23'0 0.0
2017-Sep-29 11:27N 34°37' E 135°23'0 0.0
2017-Sep-29 10:57N 34°37' E 135°23'0 0.1
2017-Sep-29 10:27N 34°37' E 135°23'0 0.0
2017-Sep-29 09:51N 34°37' E 135°23'0 0.0
2017-Sep-29 08:27N 34°37' E 135°23'0 0.0
2017-Sep-29 07:15N 34°37' E 135°23'0 0.0
2017-Sep-29 05:45N 34°37' E 135°23'0 0.0
2017-Sep-29 04:57N 34°37' E 135°23'0 0.0
2017-Sep-29 04:21N 34°37' E 135°23'0 0.0
2017-Sep-29 02:51N 34°37' E 135°23'0 0.0
2017-Sep-28 18:57N 34°37' E 135°23'0 0.0
2017-Sep-28 17:57N 34°37' E 135°23'0 0.0
2017-Sep-28 17:27N 34°37' E 135°23'0 0.0
2017-Sep-28 16:03N 34°37' E 135°23'0 0.0
2017-Sep-28 15:59N 34°37' E 135°23'510.0
2017-Sep-28 15:26N 34°33' E 135°18'711.8
2017-Sep-28 14:49N 34°28' E 135°12'1511.3
2017-Sep-28 13:31N 34°15' E 135°03'012.3
2017-Sep-28 13:30N 34°15' E 135°03'233 8.9
2017-Sep-27 11:24N 35°06' E 139°39'411.2
2017-Sep-27 11:00N 35°09' E 139°43'611.4
2017-Sep-27 10:30N 35°14' E 139°46'811.3
2017-Sep-27 09:48N 35°21' E 139°42'310.9
2017-Sep-27 09:30N 35°24' E 139°43'11 0.3
2017-Sep-25 16:02N 35°14' E 139°47'111.2
2017-Sep-25 15:56N 35°13' E 139°47'511.8
2017-Sep-25 15:29N 35°07' E 139°46'611.5
2017-Sep-25 15:00N 35°03' E 139°42'231 8.8
2017-Sep-24 12:48N 34°34' E 135°03'  
2017-Sep-21 23:30N 34°14' E 135°06'1 1.6
2017-Sep-21 22:49N 34°15' E 135°07'0 0.0
2017-Sep-21 22:25N 34°15' E 135°07'0 0.0
2017-Sep-21 21:49N 34°15' E 135°07'0 0.0
2017-Sep-21 21:25N 34°15' E 135°07'0 0.0
2017-Sep-21 20:55N 34°15' E 135°07'0 0.0
2017-Sep-21 20:13N 34°15' E 135°07'0 0.0
2017-Sep-21 19:49N 34°15' E 135°07'0 0.0
2017-Sep-21 17:22N 34°15' E 135°07'0 0.0
2017-Sep-21 16:46N 34°15' E 135°07'0 0.0
2017-Sep-21 16:28N 34°15' E 135°07'0 0.0
2017-Sep-21 14:37N 34°15' E 135°07'0 0.0
2017-Sep-21 14:19N 34°15' E 135°07'0 0.0
2017-Sep-21 13:49N 34°15' E 135°07'0 0.0
2017-Sep-21 13:13N 34°15' E 135°07'0 0.0
2017-Sep-21 12:43N 34°15' E 135°07'0 0.0
2017-Sep-21 12:25N 34°15' E 135°07'1 1.8
2017-Sep-21 11:55N 34°15' E 135°06'0 0.0
2017-Sep-21 10:46N 34°15' E 135°06'0 0.0
2017-Sep-21 10:28N 34°15' E 135°06'0 0.0
2017-Sep-21 09:58N 34°15' E 135°06'0 0.0
2017-Sep-21 09:28N 34°15' E 135°06'0 0.0
2017-Sep-21 08:58N 34°15' E 135°06'0 0.0
2017-Sep-21 08:22N 34°15' E 135°06'0 0.0
2017-Sep-21 06:10N 34°15' E 135°06'0 0.0
2017-Sep-21 05:58N 34°15' E 135°06'0 0.0
2017-Sep-21 05:28N 34°15' E 135°06'0 0.0
2017-Sep-21 04:58N 34°15' E 135°06'0 0.0
2017-Sep-21 04:28N 34°15' E 135°06'0 0.1
2017-Sep-21 03:52N 34°15' E 135°06'0 0.1
2017-Sep-21 03:13N 34°15' E 135°06'0 0.2
2017-Sep-21 02:58N 34°15' E 135°06'0 0.0
2017-Sep-21 01:49N 34°15' E 135°06'0 0.0
2017-Sep-21 01:16N 34°15' E 135°06'0 0.0
2017-Sep-21 00:46N 34°15' E 135°06'0 0.0
2017-Sep-21 00:28N 34°15' E 135°06'0 0.0
2017-Sep-20 23:58N 34°15' E 135°06'0 0.0
2017-Sep-20 23:28N 34°15' E 135°06'0 0.0
2017-Sep-20 22:49N 34°15' E 135°06'0 0.0
2017-Sep-20 22:28N 34°15' E 135°06'0 0.0
2017-Sep-20 21:58N 34°15' E 135°06'4 7.1
2017-Sep-20 21:27N 34°12' E 135°04'  
Track history (hours):
 
Tides and Currents Weather Stations Pressure Air Temp Water Temp Dewpoint Dewpoint Depression Visibility Wind Speed Wind Dir Waves Ship Positions

Seizan Maru

Last reported at 2017-Sep-29 21:40 UTC. Time now 2017-Oct-22 06:11 UTC.
Position N 34°36' E 135°25'.
Warning: this ship's position is 22 days out of date.

Length 74 m.

Type: Cargo ship. MMSI: 431001149.

Date/timePositionNaut miles runAvg speedWind from/ knotsBaromVisibWave heightAir tempDewpointWater temp
2017-Sep-29 21:40N 34°36' E 135°25'1 8.7
2017-Sep-29 21:30N 34°36' E 135°24'3 5.9
2017-Sep-29 20:59N 34°39' E 135°26'2 0.2
2017-Sep-29 14:09N 34°38' E 135°27'1 6.0
2017-Sep-29 13:55N 34°39' E 135°26'3 6.5
2017-Sep-29 13:27N 34°37' E 135°23'0 0.0
2017-Sep-29 12:57N 34°37' E 135°23'0 0.0
2017-Sep-29 12:27N 34°37' E 135°23'0 0.0
2017-Sep-29 11:51N 34°37' E 135°23'0 0.0
2017-Sep-29 11:27N 34°37' E 135°23'0 0.0
2017-Sep-29 10:57N 34°37' E 135°23'0 0.1
2017-Sep-29 10:27N 34°37' E 135°23'0 0.0
2017-Sep-29 09:51N 34°37' E 135°23'0 0.0
2017-Sep-29 08:27N 34°37' E 135°23'0 0.0
2017-Sep-29 07:15N 34°37' E 135°23'0 0.0
2017-Sep-29 05:45N 34°37' E 135°23'0 0.0
2017-Sep-29 04:57N 34°37' E 135°23'0 0.0
2017-Sep-29 04:21N 34°37' E 135°23'0 0.0
2017-Sep-29 02:51N 34°37' E 135°23'0 0.0
2017-Sep-28 18:57N 34°37' E 135°23'0 0.0
2017-Sep-28 17:57N 34°37' E 135°23'0 0.0
2017-Sep-28 17:27N 34°37' E 135°23'0 0.0
2017-Sep-28 16:03N 34°37' E 135°23'0 0.0
2017-Sep-28 15:59N 34°37' E 135°23'510.0
2017-Sep-28 15:26N 34°33' E 135°18'711.8
2017-Sep-28 14:49N 34°28' E 135°12'1511.3
2017-Sep-28 13:31N 34°15' E 135°03'012.3
2017-Sep-28 13:30N 34°15' E 135°03'233 8.9
2017-Sep-27 11:24N 35°06' E 139°39'411.2
2017-Sep-27 11:00N 35°09' E 139°43'611.4
2017-Sep-27 10:30N 35°14' E 139°46'811.3
2017-Sep-27 09:48N 35°21' E 139°42'310.9
2017-Sep-27 09:30N 35°24' E 139°43'11 0.3
2017-Sep-25 16:02N 35°14' E 139°47'111.2
2017-Sep-25 15:56N 35°13' E 139°47'511.8
2017-Sep-25 15:29N 35°07' E 139°46'611.5
2017-Sep-25 15:00N 35°03' E 139°42'231 8.8
2017-Sep-24 12:48N 34°34' E 135°03'  
2017-Sep-21 23:30N 34°14' E 135°06'1 1.6
2017-Sep-21 22:49N 34°15' E 135°07'0 0.0
2017-Sep-21 22:25N 34°15' E 135°07'0 0.0
2017-Sep-21 21:49N 34°15' E 135°07'0 0.0
2017-Sep-21 21:25N 34°15' E 135°07'0 0.0
2017-Sep-21 20:55N 34°15' E 135°07'0 0.0
2017-Sep-21 20:13N 34°15' E 135°07'0 0.0
2017-Sep-21 19:49N 34°15' E 135°07'0 0.0
2017-Sep-21 17:22N 34°15' E 135°07'0 0.0
2017-Sep-21 16:46N 34°15' E 135°07'0 0.0
2017-Sep-21 16:28N 34°15' E 135°07'0 0.0
2017-Sep-21 14:37N 34°15' E 135°07'0 0.0
2017-Sep-21 14:19N 34°15' E 135°07'0 0.0
2017-Sep-21 13:49N 34°15' E 135°07'0 0.0
2017-Sep-21 13:13N 34°15' E 135°07'0 0.0
2017-Sep-21 12:43N 34°15' E 135°07'0 0.0
2017-Sep-21 12:25N 34°15' E 135°07'1 1.8
2017-Sep-21 11:55N 34°15' E 135°06'0 0.0
2017-Sep-21 10:46N 34°15' E 135°06'0 0.0
2017-Sep-21 10:28N 34°15' E 135°06'0 0.0
2017-Sep-21 09:58N 34°15' E 135°06'0 0.0
2017-Sep-21 09:28N 34°15' E 135°06'0 0.0
2017-Sep-21 08:58N 34°15' E 135°06'0 0.0
2017-Sep-21 08:22N 34°15' E 135°06'0 0.0
2017-Sep-21 06:10N 34°15' E 135°06'0 0.0
2017-Sep-21 05:58N 34°15' E 135°06'0 0.0
2017-Sep-21 05:28N 34°15' E 135°06'0 0.0
2017-Sep-21 04:58N 34°15' E 135°06'0 0.0
2017-Sep-21 04:28N 34°15' E 135°06'0 0.1
2017-Sep-21 03:52N 34°15' E 135°06'0 0.1
2017-Sep-21 03:13N 34°15' E 135°06'0 0.2
2017-Sep-21 02:58N 34°15' E 135°06'0 0.0
2017-Sep-21 01:49N 34°15' E 135°06'0 0.0
2017-Sep-21 01:16N 34°15' E 135°06'0 0.0
2017-Sep-21 00:46N 34°15' E 135°06'0 0.0
2017-Sep-21 00:28N 34°15' E 135°06'0 0.0
2017-Sep-20 23:58N 34°15' E 135°06'0 0.0
2017-Sep-20 23:28N 34°15' E 135°06'0 0.0
2017-Sep-20 22:49N 34°15' E 135°06'0 0.0
2017-Sep-20 22:28N 34°15' E 135°06'0 0.0
2017-Sep-20 21:58N 34°15' E 135°06'4 7.1
2017-Sep-20 21:27N 34°12' E 135°04'  

Dump ship's entire track history